Time;durP1;ratioP1;P1;durP2;ratioP2;P2;SDS_P1;SDS_P2;PMS_P1;PMS_P2;Temp;Humidity;BMP_temperature;BMP_pressure;BME280_temperature;BME280_humidity;BME280_pressure;Samples;Min_cycle;Max_cycle;Signal;HPM_P1;HPM_P2
2022/06/18 00:01:34;;;;;;;24.08;10.30;;;;;;;12.55;83.82;99492.34;5043758;28;20076;-69
2022/06/18 00:04:02;;;;;;;25.42;10.90;;;;;;;12.53;83.98;99485.53;5044661;28;20056;-70
2022/06/18 00:06:34;;;;;;;39.20;10.98;;;;;;;12.51;83.98;99496.81;5042580;28;20049;-71
2022/06/18 00:09:00;;;;;;;20.67;9.85;;;;;;;12.50;83.79;99497.09;5045961;28;20140;-70
2022/06/18 00:14:11;;;;;;;23.33;10.82;;;;;;;12.48;83.55;99498.19;5046853;28;20047;-69
2022/06/18 00:16:38;;;;;;;24.70;11.07;;;;;;;12.49;83.28;99499.03;5045200;28;20455;-69
2022/06/18 00:19:04;;;;;;;24.67;10.55;;;;;;;12.52;83.12;99494.88;5043222;28;20470;-68
2022/06/18 00:21:31;;;;;;;26.17;10.85;;;;;;;12.51;82.80;99504.19;5043969;28;20133;-69
2022/06/18 00:23:58;;;;;;;27.75;9.93;;;;;;;12.49;82.78;99499.03;5041881;28;20052;-69
2022/06/18 00:26:24;;;;;;;21.38;9.75;;;;;;;12.47;82.69;99496.56;5043969;28;20052;-69
2022/06/18 00:28:50;;;;;;;28.38;9.55;;;;;;;12.32;82.92;99472.09;5042428;28;20053;-69
2022/06/18 00:31:16;;;;;;;20.27;9.32;;;;;;;12.45;82.95;99501.53;5027308;28;20053;-70
2022/06/18 00:33:42;;;;;;;22.45;8.65;;;;;;;12.42;83.09;99504.88;5041753;28;20140;-69
2022/06/18 00:36:15;;;;;;;30.35;9.20;;;;;;;12.43;82.64;99498.28;5042494;28;20057;-68
2022/06/18 00:38:46;;;;;;;26.58;9.07;;;;;;;12.42;82.85;99496.66;5044020;28;20528;-68
2022/06/18 00:41:16;;;;;;;21.80;9.23;;;;;;;12.42;82.53;99504.06;5042486;28;20049;-68
2022/06/18 00:43:47;;;;;;;29.48;8.70;;;;;;;12.41;82.36;99499.69;5043025;28;20519;-70
2022/06/18 00:46:19;;;;;;;22.13;8.68;;;;;;;12.42;82.25;99509.53;5043484;28;20091;-70
2022/06/18 00:48:55;;;;;;;28.23;8.80;;;;;;;12.44;82.39;99510.03;5044756;28;20045;-69
2022/06/18 00:51:26;;;;;;;30.15;9.07;;;;;;;12.41;82.23;99514.22;5028974;28;20140;-67
2022/06/18 00:54:00;;;;;;;24.70;8.93;;;;;;;12.44;82.16;99512.78;5043076;28;20048;-70
2022/06/18 00:56:31;;;;;;;32.08;9.05;;;;;;;12.45;81.87;99520.72;5043126;28;20424;-69
2022/06/18 00:59:01;;;;;;;17.10;8.50;;;;;;;12.45;81.70;99522.66;5042698;28;20055;-70
2022/06/18 01:01:30;;;;;;;20.75;9.05;;;;;;;12.44;81.55;99523.75;5043593;28;20155;-70
2022/06/18 01:03:56;;;;;;;26.67;8.70;;;;;;;12.47;81.27;99528.66;5043234;28;20044;-69
2022/06/18 01:06:27;;;;;;;19.23;8.90;;;;;;;12.47;81.06;99532.22;5039813;28;20056;-69
2022/06/18 01:08:59;;;;;;;25.50;8.07;;;;;;;12.51;80.70;99534.38;5044110;28;20040;-70
2022/06/18 01:11:29;;;;;;;18.10;7.68;;;;;;;12.54;80.53;99525.53;5040294;28;20287;-70
2022/06/18 01:13:57;;;;;;;19.35;7.85;;;;;;;12.56;80.66;99532.38;5041891;28;20049;-70
2022/06/18 01:16:24;;;;;;;15.48;7.50;;;;;;;12.55;80.59;99533.50;5042100;28;20427;-70
2022/06/18 01:18:51;;;;;;;17.67;8.20;;;;;;;12.55;80.77;99538.16;5024705;28;20052;-69
2022/06/18 01:21:27;;;;;;;18.17;7.97;;;;;;;12.55;80.79;99533.50;5042639;28;20423;-70
2022/06/18 01:24:03;;;;;;;23.92;8.70;;;;;;;12.49;80.91;99523.72;5039971;28;20072;-69
2022/06/18 01:26:33;;;;;;;25.17;8.25;;;;;;;12.54;80.84;99534.59;5042981;28;20539;-67
2022/06/18 01:29:00;;;;;;;18.58;8.27;;;;;;;12.54;81.07;99531.03;5025714;28;20776;-68
2022/06/18 01:31:26;;;;;;;20.15;8.50;;;;;;;12.57;80.84;99541.44;5041620;28;20547;-69
2022/06/18 01:33:53;;;;;;;26.07;8.40;;;;;;;12.60;80.81;99536.16;5027390;28;20136;-69
2022/06/18 01:36:23;;;;;;;25.80;8.38;;;;;;;12.60;80.80;99541.63;5041168;28;20300;-68
2022/06/18 01:38:50;;;;;;;20.02;8.73;;;;;;;12.59;80.96;99537.28;5024501;28;20110;-69
2022/06/18 01:44:13;;;;;;;23.27;8.10;;;;;;;12.63;81.18;99532.00;5043107;28;20419;-76
2022/06/18 01:46:45;;;;;;;21.90;8.30;;;;;;;12.67;81.01;99538.53;5039622;28;20458;-76
2022/06/18 01:49:17;;;;;;;19.35;8.55;;;;;;;12.69;80.93;99533.56;5024285;28;20049;-76
2022/06/18 01:51:47;;;;;;;17.52;8.27;;;;;;;12.73;80.66;99542.84;5024285;28;20132;-74
2022/06/18 01:54:20;;;;;;;21.13;8.02;;;;;;;12.72;80.25;99543.16;5043452;28;20418;-75
2022/06/18 01:56:52;;;;;;;23.52;7.22;;;;;;;12.74;80.27;99535.44;5045398;28;20052;-75
2022/06/18 01:59:25;;;;;;;18.50;8.35;;;;;;;12.72;79.93;99543.16;5041533;28;20053;-75
2022/06/18 02:01:52;;;;;;;25.80;8.10;;;;;;;12.75;79.76;99550.78;5023175;28;20056;-76
2022/06/18 02:04:20;;;;;;;23.73;8.38;;;;;;;12.74;79.86;99549.97;5024577;28;20050;-75
2022/06/18 02:06:50;;;;;;;23.38;8.38;;;;;;;12.78;79.71;99558.41;5024851;28;20053;-76
2022/06/18 02:09:31;;;;;;;15.43;8.10;;;;;;;12.84;79.63;99561.91;5004437;28;20152;-76
2022/06/18 02:12:02;;;;;;;19.13;8.00;;;;;;;12.88;79.53;99563.75;5023716;28;20049;-75
2022/06/18 02:14:33;;;;;;;20.73;8.35;;;;;;;12.89;79.32;99559.09;5023997;28;20057;-76
2022/06/18 02:17:05;;;;;;;19.00;8.43;;;;;;;12.91;79.05;99565.91;5021924;28;20049;-69
2022/06/18 02:19:33;;;;;;;23.30;8.32;;;;;;;12.90;79.08;99561.53;5025940;28;20041;-70
2022/06/18 02:22:01;;;;;;;20.48;9.13;;;;;;;12.96;78.94;99573.25;5022679;28;20050;-76
2022/06/18 02:24:29;;;;;;;17.95;8.57;;;;;;;12.97;78.53;99574.88;4988951;28;20053;-76
2022/06/18 02:26:56;;;;;;;23.08;8.18;;;;;;;12.97;78.42;99569.41;5005185;28;20124;-76
2022/06/18 02:29:26;;;;;;;19.33;7.57;;;;;;;13.03;78.48;99575.63;5024423;28;20064;-77
2022/06/18 02:31:54;;;;;;;19.20;7.75;;;;;;;13.09;78.26;99568.16;5024987;28;20046;-76
2022/06/18 02:34:23;;;;;;;20.50;7.03;;;;;;;13.12;78.20;99567.53;5022753;28;20487;-76
2022/06/18 02:36:50;;;;;;;18.15;7.55;;;;;;;13.19;78.10;99568.00;5025110;28;20053;-75
2022/06/18 02:39:27;;;;;;;20.80;7.93;;;;;;;13.17;77.70;99556.47;5017106;28;20147;-69
2022/06/18 02:41:58;;;;;;;18.25;7.72;;;;;;;13.28;77.43;99565.41;5021991;28;20049;-70
2022/06/18 02:44:25;;;;;;;18.48;7.50;;;;;;;13.33;77.27;99568.06;5021756;28;20607;-69
2022/06/18 02:46:51;;;;;;;24.48;7.75;;;;;;;13.37;76.56;99558.09;5005475;28;20049;-68
2022/06/18 02:49:19;;;;;;;17.95;7.13;;;;;;;13.42;76.45;99558.00;5019707;28;20136;-76
2022/06/18 02:51:45;;;;;;;18.58;7.47;;;;;;;13.47;76.06;99549.72;4989393;28;20129;-74
2022/06/18 02:54:12;;;;;;;17.87;6.77;;;;;;;13.52;75.69;99550.75;5015661;28;20065;-75
2022/06/18 02:56:38;;;;;;;14.90;7.25;;;;;;;13.55;75.23;99548.22;5021847;28;20119;-75
2022/06/18 02:59:06;;;;;;;17.10;6.57;;;;;;;13.58;75.01;99550.34;4988037;28;20321;-76
2022/06/18 03:01:35;;;;;;;16.08;6.95;;;;;;;13.63;74.78;99546.72;5004785;28;20059;-75
2022/06/18 03:04:03;;;;;;;18.05;7.25;;;;;;;13.68;74.66;99556.81;5022840;28;20194;-74
2022/06/18 03:06:33;;;;;;;15.00;6.85;;;;;;;13.65;73.93;99552.72;5004901;28;20092;-74
2022/06/18 03:08:59;;;;;;;19.40;6.47;;;;;;;13.71;74.22;99546.00;5022161;28;20103;-75
2022/06/18 03:12:13;;;;;;;20.57;7.20;;;;;;;13.79;73.56;99555.47;4988064;28;20045;-75
2022/06/18 03:14:16;;;;;;;27.33;6.55;;;;;;;13.88;73.35;99547.34;5018187;28;20456;-75
2022/06/18 03:16:43;;;;;;;13.93;6.32;;;;;;;13.96;72.81;99554.91;5022141;28;20049;-70
2022/06/18 03:19:16;;;;;;;20.95;6.65;;;;;;;14.03;71.79;99549.00;5021336;28;20146;-67
2022/06/18 03:21:48;;;;;;;21.15;6.07;;;;;;;14.14;70.97;99555.97;5022107;28;20378;-69
2022/06/18 03:24:14;;;;;;;13.77;5.82;;;;;;;14.21;70.60;99550.06;5020434;28;20526;-68
2022/06/18 03:26:40;;;;;;;16.60;5.70;;;;;;;14.27;70.48;99551.56;5020602;28;20049;-69
2022/06/18 03:29:11;;;;;;;15.63;6.47;;;;;;;14.32;70.34;99547.91;5024008;28;20061;-70
2022/06/18 03:31:37;;;;;;;18.60;6.53;;;;;;;14.37;70.17;99558.78;5026329;28;20049;-69
2022/06/18 03:34:04;;;;;;;14.25;6.68;;;;;;;14.39;70.12;99547.50;5024979;28;20475;-70
2022/06/18 03:36:31;;;;;;;19.38;6.18;;;;;;;14.42;70.15;99541.38;5023538;28;20571;-69
2022/06/18 03:39:00;;;;;;;26.30;5.90;;;;;;;14.55;69.46;99550.72;5007818;28;20132;-72
2022/06/18 03:41:28;;;;;;;18.75;5.50;;;;;;;14.59;68.36;99552.56;5022714;28;20053;-75
2022/06/18 03:43:56;;;;;;;15.55;5.18;;;;;;;14.63;67.59;99554.69;5012184;28;20045;-76
2022/06/18 03:46:24;;;;;;;12.80;5.20;;;;;;;14.67;66.88;99551.03;5030636;28;20653;-75
2022/06/18 03:48:53;;;;;;;14.07;5.22;;;;;;;14.74;66.35;99551.44;5029040;28;20524;-70
2022/06/18 03:51:24;;;;;;;17.15;4.93;;;;;;;14.82;65.41;99558.16;5027942;28;20582;-69
2022/06/18 03:53:50;;;;;;;13.82;4.85;;;;;;;14.85;65.51;99552.03;5016979;28;20141;-69
2022/06/18 03:56:20;;;;;;;16.65;5.35;;;;;;;14.92;64.73;99562.63;5026019;28;20041;-69
2022/06/18 03:58:48;;;;;;;11.85;4.40;;;;;;;14.96;64.56;99552.63;5038569;28;20515;-69
2022/06/18 04:01:18;;;;;;;18.63;5.10;;;;;;;15.01;63.68;99548.94;5043260;28;20575;-69
2022/06/18 04:03:46;;;;;;;14.88;4.28;;;;;;;15.08;63.39;99554.03;5045142;28;20147;-69
2022/06/18 04:06:20;;;;;;;12.48;4.72;;;;;;;15.15;62.39;99559.91;5027951;28;20051;-76
2022/06/18 04:08:47;;;;;;;10.07;4.20;;;;;;;15.21;61.98;99555.88;5025667;28;20037;-76
2022/06/18 04:11:22;;;;;;;15.25;4.25;;;;;;;15.26;62.15;99564.03;5046232;28;20461;-76
2022/06/18 04:13:49;;;;;;;16.08;4.40;;;;;;;15.30;61.03;99548.50;5039377;28;20087;-76
2022/06/18 04:16:35;;;;;;;22.15;5.00;;;;;;;15.34;60.90;99554.22;4662540;28;10000543;-76
2022/06/18 04:19:13;;;;;;;12.40;4.05;;;;;;;15.41;60.64;99559.28;5035021;28;20094;-76
2022/06/18 04:21:40;;;;;;;12.63;4.03;;;;;;;15.48;60.58;99562.41;5039048;28;20044;-75
2022/06/18 04:24:06;;;;;;;9.48;3.50;;;;;;;15.52;58.96;99566.16;5039124;28;20052;-75
2022/06/18 04:26:36;;;;;;;15.25;3.40;;;;;;;15.57;58.73;99559.72;5003379;28;20057;-77
2022/06/18 04:29:02;;;;;;;13.57;3.40;;;;;;;15.61;58.25;99557.97;5022087;28;20083;-76
2022/06/18 04:31:29;;;;;;;8.15;3.10;;;;;;;15.61;57.59;99546.94;5033001;28;20126;-76
2022/06/18 04:33:57;;;;;;;11.90;3.55;;;;;;;15.68;56.95;99568.53;5040605;28;20435;-75
2022/06/18 04:36:31;;;;;;;20.25;3.80;;;;;;;15.72;57.04;99553.81;5042375;28;20102;-76
2022/06/18 04:38:59;;;;;;;10.30;3.20;;;;;;;15.79;56.62;99556.13;5045527;28;20056;-77
2022/06/18 04:41:39;;;;;;;25.25;3.50;;;;;;;15.84;56.97;99555.16;5041793;28;20149;-70
2022/06/18 04:44:11;;;;;;;10.85;3.28;;;;;;;15.88;55.85;99558.91;5045530;28;20424;-70
2022/06/18 04:46:38;;;;;;;12.82;2.97;;;;;;;15.93;55.37;99558.00;5041475;28;20053;-70
2022/06/18 04:49:05;;;;;;;17.95;3.20;;;;;;;15.88;54.61;99539.63;5024858;28;20045;-70
2022/06/18 04:51:31;;;;;;;24.73;3.78;;;;;;;16.01;53.78;99562.75;5033635;28;20049;-71
2022/06/18 04:53:57;;;;;;;13.52;2.70;;;;;;;16.02;53.93;99562.44;5042887;28;20140;-70
2022/06/18 04:56:25;;;;;;;10.63;2.60;;;;;;;16.08;53.13;99549.31;5042127;28;20328;-70
2022/06/18 04:58:53;;;;;;;14.73;2.58;;;;;;;16.12;52.34;99563.28;5044181;28;20505;-76
2022/06/18 05:01:26;;;;;;;6.40;2.40;;;;;;;16.15;52.83;99565.41;5037205;28;20045;-70
2022/06/18 05:03:57;;;;;;;17.85;2.88;;;;;;;16.16;52.41;99562.34;5023329;28;20054;-69
2022/06/18 05:06:36;;;;;;;11.75;2.58;;;;;;;16.09;51.60;99547.38;5021588;28;20060;-70
2022/06/18 05:09:31;;;;;;;8.15;2.13;;;;;;;16.14;52.08;99563.78;5032555;28;20045;-70
2022/06/18 05:12:18;;;;;;;14.68;2.70;;;;;;;16.17;52.53;99568.66;5020408;28;20314;-76
2022/06/18 05:15:00;;;;;;;7.53;2.40;;;;;;;16.13;51.98;99554.69;4987481;28;20049;-75
2022/06/18 05:17:28;;;;;;;13.50;3.15;;;;;;;16.27;52.44;99571.13;5018506;28;20038;-74
2022/06/18 05:19:55;;;;;;;18.73;3.03;;;;;;;16.35;52.33;99568.72;5018227;28;20053;-76
2022/06/18 05:22:22;;;;;;;8.82;3.08;;;;;;;16.43;52.50;99570.72;5003966;28;20475;-76
2022/06/18 05:24:51;;;;;;;21.98;2.75;;;;;;;16.48;51.95;99578.81;5021969;28;20053;-75
2022/06/18 05:27:24;;;;;;;27.92;4.20;;;;;;;16.43;52.35;99577.03;5022704;28;20525;-77
2022/06/18 05:29:52;;;;;;;17.48;3.42;;;;;;;16.45;51.73;99577.50;5026821;28;20513;-76
2022/06/18 05:32:20;;;;;;;24.67;2.38;;;;;;;16.47;50.72;99584.66;5025156;28;20075;-76
2022/06/18 05:34:47;;;;;;;12.13;2.45;;;;;;;16.43;50.15;99588.06;5026051;28;20050;-76
2022/06/18 05:37:15;;;;;;;14.13;2.30;;;;;;;16.45;49.90;99587.75;5028792;28;20072;-75
2022/06/18 05:39:41;;;;;;;8.93;2.15;;;;;;;16.45;50.24;99585.78;5024345;28;20049;-76
2022/06/18 05:42:08;;;;;;;7.53;2.07;;;;;;;16.50;51.02;99589.56;4990107;28;20582;-76
2022/06/18 05:44:35;;;;;;;8.55;2.33;;;;;;;16.52;51.07;99595.56;5027195;28;20544;-76
2022/06/18 05:47:02;;;;;;;11.88;2.38;;;;;;;16.57;51.32;99585.19;5026465;28;20076;-75
2022/06/18 05:49:30;;;;;;;7.57;2.42;;;;;;;16.63;51.83;99587.78;5023686;28;20045;-78
2022/06/18 05:51:57;;;;;;;15.60;2.65;;;;;;;16.68;51.46;99593.97;5022881;28;20069;-76
2022/06/18 05:54:23;;;;;;;7.70;2.25;;;;;;;16.69;51.29;99590.09;4993212;28;20505;-76
2022/06/18 05:57:06;;;;;;;11.40;2.35;;;;;;;16.70;50.33;99583.44;5004659;28;20397;-75
2022/06/18 05:59:38;;;;;;;8.63;2.10;;;;;;;16.73;50.77;99576.47;5024422;28;20455;-76
2022/06/18 06:02:10;;;;;;;7.53;2.13;;;;;;;16.79;50.66;99583.44;5022347;28;20049;-75
2022/06/18 06:04:39;;;;;;;12.70;2.10;;;;;;;16.79;49.72;99590.94;5022110;28;20525;-69
2022/06/18 06:07:05;;;;;;;11.50;2.17;;;;;;;16.75;49.12;99587.16;5022138;28;20056;-70
2022/06/18 06:12:17;;;;;;;9.55;2.28;;;;;;;16.71;49.81;99584.25;5022164;28;20053;-70
2022/06/18 06:14:43;;;;;;;13.88;2.40;;;;;;;16.76;49.94;99586.03;5019524;28;20045;-70
2022/06/18 06:17:13;;;;;;;13.00;2.83;;;;;;;16.80;49.33;99590.59;5023187;28;20045;-70
2022/06/18 06:19:42;;;;;;;7.80;2.47;;;;;;;16.86;49.47;99582.97;5005996;28;20593;-68
2022/06/18 06:22:08;;;;;;;11.75;2.20;;;;;;;16.92;49.28;99583.63;5022658;28;20053;-70
2022/06/18 06:24:34;;;;;;;7.88;2.15;;;;;;;17.01;48.58;99579.78;5004999;28;20188;-70
2022/06/18 06:27:01;;;;;;;14.15;2.35;;;;;;;17.20;48.68;99581.41;5035827;28;20544;-70
2022/06/18 06:29:27;;;;;;;11.77;2.50;;;;;;;17.41;48.24;99576.03;5041819;28;20499;-70
2022/06/18 06:31:54;;;;;;;11.07;2.35;;;;;;;17.62;47.67;99583.63;5042898;28;20056;-69
2022/06/18 06:34:20;;;;;;;8.57;2.40;;;;;;;17.63;47.93;99588.03;5042397;28;20075;-70
2022/06/18 06:36:48;;;;;;;13.65;2.42;;;;;;;17.82;47.98;99584.13;5042441;28;20053;-70
2022/06/18 06:39:14;;;;;;;13.60;2.60;;;;;;;18.03;47.12;99586.19;5043071;28;20048;-70
2022/06/18 06:41:40;;;;;;;15.50;2.70;;;;;;;18.05;47.79;99584.72;5061432;28;20064;-70
2022/06/18 06:44:09;;;;;;;13.90;2.53;;;;;;;18.07;46.87;99571.38;5066911;28;20305;-76
2022/06/18 06:46:36;;;;;;;13.90;2.42;;;;;;;18.12;46.18;99579.47;5030356;28;20055;-76
2022/06/18 06:49:02;;;;;;;7.60;2.30;;;;;;;18.05;46.25;99575.59;5050948;28;20044;-75
2022/06/18 06:51:30;;;;;;;7.90;2.10;;;;;;;18.04;47.02;99585.88;5044962;28;20226;-76
2022/06/18 06:53:58;;;;;;;11.75;2.53;;;;;;;18.05;46.30;99593.03;5025713;28;20064;-77
2022/06/18 06:59:10;;;;;;;5.93;2.30;;;;;;;18.07;46.25;99585.19;5044383;28;20076;-76
2022/06/18 07:01:37;;;;;;;11.13;2.38;;;;;;;18.10;46.25;99589.25;5045352;28;20055;-77
2022/06/18 07:04:05;;;;;;;7.57;2.15;;;;;;;18.22;46.21;99594.09;5050126;28;20052;-70
2022/06/18 07:06:31;;;;;;;7.45;2.10;;;;;;;18.27;45.05;99594.72;5047236;28;20072;-69
2022/06/18 07:09:03;;;;;;;14.57;2.45;;;;;;;18.40;45.32;99587.34;4828808;28;10001162;-76
2022/06/18 07:11:30;;;;;;;11.30;2.40;;;;;;;18.74;44.83;99584.72;5051277;28;20353;-77
2022/06/18 07:13:56;;;;;;;6.97;2.20;;;;;;;18.90;44.18;99596.00;5048788;28;20055;-76
2022/06/18 07:16:22;;;;;;;8.15;2.63;;;;;;;18.84;44.63;99584.31;5026835;28;20512;-75
2022/06/18 07:18:50;;;;;;;7.38;2.42;;;;;;;19.05;44.26;99586.34;5047142;28;20048;-75
2022/06/18 07:21:16;;;;;;;;;;;;;;;19.38;44.01;99596.66;5043027;28;20478;-75
2022/06/18 07:23:43;;;;;;;8.23;2.20;;;;;;;19.49;43.57;99582.38;5039498;28;20437;-76
2022/06/18 07:26:14;;;;;;;7.65;2.40;;;;;;;19.75;43.45;99578.53;5052121;28;20583;-75
2022/06/18 07:28:42;;;;;;;8.10;2.50;;;;;;;19.58;44.00;99569.25;5046041;28;20055;-76
2022/06/18 07:31:14;;;;;;;7.72;2.45;;;;;;;19.61;43.44;99585.19;5047946;28;20071;-76
2022/06/18 07:33:42;;;;;;;5.85;2.25;;;;;;;19.53;42.84;99564.72;5047978;28;20148;-76
2022/06/18 07:36:08;;;;;;;9.43;2.53;;;;;;;19.63;42.95;99576.53;5044211;28;20492;-75
2022/06/18 07:38:34;;;;;;;7.73;2.10;;;;;;;19.77;42.90;99584.56;5046730;28;20041;-77
2022/06/18 07:41:00;;;;;;;8.68;2.20;;;;;;;19.50;43.25;99581.22;5042703;28;20048;-71
2022/06/18 07:43:33;;;;;;;8.52;2.08;;;;;;;19.50;43.36;99572.91;5043054;28;20602;-71
2022/06/18 07:46:01;;;;;;;16.30;2.90;;;;;;;19.87;42.36;99569.44;5045561;28;20122;-71
2022/06/18 07:48:27;;;;;;;11.95;2.78;;;;;;;20.38;41.42;99566.41;5044537;28;20159;-70
2022/06/18 07:50:53;;;;;;;11.73;2.25;;;;;;;20.81;40.17;99578.09;5046631;28;20040;-70
2022/06/18 07:53:22;;;;;;;12.23;2.40;;;;;;;20.48;40.50;99565.13;5046377;28;20122;-71
2022/06/18 07:55:49;;;;;;;14.70;3.10;;;;;;;20.56;41.02;99575.31;5038340;28;20063;-71
2022/06/18 07:58:16;;;;;;;;;;;;;;;20.51;41.11;99554.13;5015114;28;20059;-71
2022/06/18 08:00:44;;;;;;;8.18;2.20;;;;;;;20.63;40.90;99574.72;5045426;28;20013;-71
2022/06/18 08:03:12;;;;;;;14.95;3.22;;;;;;;20.87;40.46;99568.38;5048296;28;20928;-71
2022/06/18 08:05:38;;;;;;;17.02;2.80;;;;;;;21.46;39.09;99568.84;5051188;28;20049;-71
2022/06/18 08:08:05;;;;;;;10.38;2.80;;;;;;;21.75;38.24;99568.88;5047011;28;20420;-69
2022/06/18 08:10:32;;;;;;;8.45;2.90;;;;;;;21.59;38.63;99572.41;5052374;28;20102;-70
2022/06/18 08:12:59;;;;;;;;;;;;;;;21.81;39.37;99575.78;5052421;28;20053;-76
2022/06/18 08:15:25;;;;;;;18.42;3.28;;;;;;;22.21;38.22;99571.22;5027731;28;20480;-76
2022/06/18 08:17:53;;;;;;;9.85;2.70;;;;;;;22.00;38.38;99574.28;5044112;28;20044;-75
2022/06/18 08:20:19;;;;;;;16.23;2.70;;;;;;;21.60;39.34;99562.91;5043697;28;20565;-76
2022/06/18 08:22:49;;;;;;;10.05;2.38;;;;;;;21.38;39.77;99569.81;5036328;28;20517;-75
2022/06/18 08:25:18;;;;;;;9.05;2.42;;;;;;;21.16;40.48;99563.66;5030987;28;20536;-78
2022/06/18 08:27:46;;;;;;;10.90;2.65;;;;;;;21.68;39.61;99567.50;5060291;28;20648;-76
2022/06/18 08:30:13;;;;;;;8.20;2.47;;;;;;;22.08;39.11;99574.09;5045478;28;20144;-76
2022/06/18 08:32:39;;;;;;;;;;;;;;;22.51;37.67;99562.44;5046441;28;20049;-69
2022/06/18 08:35:07;;;;;;;8.30;2.40;;;;;;;22.27;37.80;99563.41;5043049;28;20447;-70
2022/06/18 08:37:34;;;;;;;9.27;2.28;;;;;;;22.12;37.89;99570.63;5034330;28;20041;-68
2022/06/18 08:40:00;;;;;;;14.50;3.53;;;;;;;22.14;37.70;99571.84;5000253;28;20041;-69
2022/06/18 08:42:42;;;;;;;14.68;2.92;;;;;;;22.60;37.89;99576.16;5037890;28;20042;-70
2022/06/18 08:45:24;;;;;;;13.45;2.10;;;;;;;23.15;35.70;99562.25;5011930;28;20045;-74
2022/06/18 08:48:08;;;;;;;12.07;2.30;;;;;;;22.54;36.69;99558.13;5031194;28;20552;-76
2022/06/18 08:50:51;;;;;;;11.85;2.38;;;;;;;22.26;36.83;99559.03;5022571;28;20053;-76
2022/06/18 08:53:43;;;;;;;7.93;2.75;;;;;;;22.86;36.44;99564.41;5027114;28;20053;-69
2022/06/18 08:56:14;;;;;;;10.07;2.63;;;;;;;23.76;35.49;99561.88;5033027;28;20282;-69
2022/06/18 08:58:51;;;;;;;9.13;2.40;;;;;;;23.79;34.86;99567.50;5043110;28;20067;-69
2022/06/18 09:01:22;;;;;;;17.80;2.50;;;;;;;23.70;34.31;99569.75;5045882;28;20963;-68
2022/06/18 09:04:00;;;;;;;6.95;2.00;;;;;;;23.68;32.38;99558.16;5058760;28;20056;-70
2022/06/18 09:06:38;;;;;;;16.08;2.33;;;;;;;23.30;33.84;99565.38;5044623;28;20076;-67
2022/06/18 09:09:13;;;;;;;9.52;2.35;;;;;;;23.35;33.42;99565.09;5038597;28;20048;-68
2022/06/18 09:12:05;;;;;;;6.03;2.10;;;;;;;23.99;32.49;99566.66;5042756;28;20542;-71
2022/06/18 09:14:38;;;;;;;6.82;2.00;;;;;;;24.28;32.47;99556.81;5044222;28;20048;-68
2022/06/18 09:17:12;;;;;;;6.95;2.05;;;;;;;24.35;32.41;99550.50;5041238;28;20250;-70
2022/06/18 09:19:41;;;;;;;8.73;2.22;;;;;;;24.53;31.67;99548.00;5044728;28;20567;-69
2022/06/18 09:22:13;;;;;;;8.40;2.42;;;;;;;24.96;31.54;99549.84;5046202;28;20077;-69
2022/06/18 09:24:42;;;;;;;8.75;2.20;;;;;;;25.54;30.90;99547.75;5044018;28;20597;-70
2022/06/18 09:27:15;;;;;;;7.28;1.85;;;;;;;25.74;30.10;99548.34;5043726;28;20144;-69
2022/06/18 09:29:47;;;;;;;5.05;2.10;;;;;;;24.56;31.64;99546.47;5042829;28;20036;-69
2022/06/18 09:32:20;;;;;;;10.70;2.20;;;;;;;23.00;34.40;99551.97;5042596;28;20064;-69
2022/06/18 09:34:51;;;;;;;6.15;1.90;;;;;;;21.86;36.60;99553.28;5045428;28;20037;-69
2022/06/18 09:37:26;;;;;;;17.02;2.08;;;;;;;21.30;36.94;99541.00;5047030;28;20057;-69
2022/06/18 09:39:57;;;;;;;8.38;1.90;;;;;;;20.97;37.55;99548.41;5047074;28;20480;-68
2022/06/18 09:42:28;;;;;;;16.77;2.50;;;;;;;20.82;37.69;99538.03;5030768;28;20068;-68
2022/06/18 09:44:58;;;;;;;7.70;2.08;;;;;;;21.40;37.12;99550.81;5040069;28;20460;-69
2022/06/18 09:47:33;;;;;;;4.88;1.70;;;;;;;22.27;35.02;99555.88;5024012;28;20206;-69
2022/06/18 09:50:01;;;;;;;8.70;2.25;;;;;;;23.58;32.66;99550.38;5036215;28;20048;-69
2022/06/18 09:52:35;;;;;;;10.18;2.30;;;;;;;24.91;30.99;99553.75;5037541;28;20040;-69
2022/06/18 09:55:06;;;;;;;13.70;2.00;;;;;;;26.28;29.92;99539.66;5062664;28;20577;-68
2022/06/18 09:57:36;;;;;;;11.43;2.22;;;;;;;26.00;29.51;99544.63;5046032;28;20299;-68
2022/06/18 10:00:06;;;;;;;10.45;2.10;;;;;;;24.85;30.74;99536.50;5042172;28;20508;-67
2022/06/18 10:02:38;;;;;;;14.65;2.05;;;;;;;23.49;32.17;99539.44;5041439;28;20079;-68
2022/06/18 10:08:01;;;;;;;8.77;2.00;;;;;;;22.52;34.10;99539.81;5041707;28;20234;-68
2022/06/18 10:10:28;;;;;;;9.55;2.03;;;;;;;22.01;34.71;99534.97;5042687;28;20099;-68
2022/06/18 10:12:58;;;;;;;13.65;2.20;;;;;;;21.53;35.82;99537.66;5042983;28;20060;-68
2022/06/18 10:15:26;;;;;;;11.02;2.28;;;;;;;21.20;36.47;99547.06;5045288;28;20099;-68
2022/06/18 10:17:57;;;;;;;;;;;;;;;20.92;37.21;99536.75;5041312;28;20044;-75
2022/06/18 10:20:32;;;;;;;19.98;2.47;;;;;;;20.69;37.83;99551.94;5023381;28;19924;-75
2022/06/18 10:23:11;;;;;;;19.58;3.17;;;;;;;20.53;38.63;99545.47;5040115;28;20048;-69
2022/06/18 10:25:45;;;;;;;16.05;2.42;;;;;;;20.49;38.39;99544.53;5024200;28;20065;-68
2022/06/18 10:28:21;;;;;;;15.15;2.55;;;;;;;20.24;38.97;99534.25;5021489;28;20041;-75
2022/06/18 10:30:51;;;;;;;14.27;2.53;;;;;;;;;;5001792;28;20587;-75
2022/06/18 10:33:29;;;;;;;21.88;3.28;;;;;;;20.48;39.25;99560.41;5021616;28;20075;-75
2022/06/18 10:36:08;;;;;;;14.23;2.95;;;;;;;20.66;38.35;99551.81;5006162;28;20041;-75
2022/06/18 10:38:59;;;;;;;9.75;2.35;;;;;;;20.88;38.04;99552.50;5020759;28;20049;-74
2022/06/18 10:41:30;;;;;;;14.57;2.42;;;;;;;21.39;37.24;99555.59;5024611;28;20053;-75
2022/06/18 10:44:14;;;;;;;27.83;2.95;;;;;;;21.78;36.67;99549.50;5008788;28;20142;-74
2022/06/18 10:46:41;;;;;;;13.15;2.40;;;;;;;22.22;35.96;99550.56;5031999;28;20463;-75
2022/06/18 10:49:07;;;;;;;9.70;2.35;;;;;;;22.60;35.42;99546.34;5041437;28;20056;-75
2022/06/18 10:51:42;;;;;;;12.93;2.20;;;;;;;22.72;34.97;99545.41;5043942;28;20416;-75
2022/06/18 10:54:10;;;;;;;12.07;2.17;;;;;;;22.56;34.94;99555.78;5040469;28;20315;-74
2022/06/18 10:56:49;;;;;;;15.45;2.15;;;;;;;22.48;35.26;99547.28;5022369;28;20052;-75
2022/06/18 10:59:26;;;;;;;6.07;1.98;;;;;;;22.21;34.83;99548.97;5036331;28;20045;-74
2022/06/18 11:01:51;;;;;;;;;;;;;;;22.02;35.35;99547.72;4689366;28;10000466;-68
2022/06/18 11:04:22;;;;;;;9.25;2.20;;;;;;;23.37;33.33;99544.00;5037861;28;19925;-69
2022/06/18 11:06:52;;;;;;;5.68;2.50;;;;;;;24.44;30.67;99542.69;5037674;28;20072;-68
2022/06/18 11:09:23;;;;;;;6.50;2.40;;;;;;;25.95;28.88;99535.75;5028377;28;20053;-69
2022/06/18 11:11:55;;;;;;;14.15;2.45;;;;;;;26.87;27.69;99539.66;5018602;28;20069;-69
2022/06/18 11:14:21;;;;;;;5.93;1.73;;;;;;;27.13;26.92;99534.16;5034436;28;20049;-70
2022/06/18 11:16:51;;;;;;;8.48;2.47;;;;;;;25.98;28.94;99532.97;5017604;28;20052;-69
2022/06/18 11:19:24;;;;;;;9.65;1.90;;;;;;;24.46;30.36;99508.81;5007908;28;20053;-69
2022/06/18 11:21:51;;;;;;;9.50;2.00;;;;;;;23.35;31.57;99526.84;5016989;28;20381;-69
2022/06/18 11:24:29;;;;;;;6.27;2.07;;;;;;;22.59;33.60;99544.72;5031550;28;20532;-69
2022/06/18 11:26:59;;;;;;;5.50;1.90;;;;;;;22.09;34.69;99533.16;5038367;28;20300;-68
2022/06/18 11:29:35;;;;;;;7.45;1.95;;;;;;;22.06;34.81;99528.31;5039504;28;20059;-67
2022/06/18 11:32:08;;;;;;;7.32;1.98;;;;;;;22.03;35.62;99524.28;5039943;28;20507;-69
2022/06/18 11:34:36;;;;;;;9.38;2.40;;;;;;;21.87;35.58;99517.91;5044125;28;20107;-70
2022/06/18 11:37:16;;;;;;;8.50;2.38;;;;;;;21.78;36.25;99520.84;5042259;28;20083;-69
2022/06/18 11:39:53;;;;;;;6.30;2.13;;;;;;;21.83;35.78;99515.03;5041362;28;20056;-69
2022/06/18 11:42:26;;;;;;;8.40;2.10;;;;;;;22.56;34.38;99508.44;5035045;28;20053;-69
2022/06/18 11:45:06;;;;;;;16.65;2.92;;;;;;;24.05;32.83;99517.75;5022664;28;20262;-69
2022/06/18 11:47:39;;;;;;;23.17;3.00;;;;;;;26.64;29.04;99502.66;5022039;28;20570;-75
2022/06/18 11:50:14;;;;;;;7.18;2.50;;;;;;;28.24;26.44;99506.69;5008635;28;20167;-75
2022/06/18 11:52:46;;;;;;;6.50;2.65;;;;;;;28.83;25.63;99503.41;5028152;28;20057;-69
2022/06/18 11:55:27;;;;;;;6.82;2.67;;;;;;;29.58;24.33;99498.59;5044496;28;20041;-68
2022/06/18 11:58:04;;;;;;;14.38;3.08;;;;;;;29.88;24.62;99492.75;5051556;28;20474;-69